Keret — UAEH — position and weather

sailwx.info

Track history (hours):
 
Tides and Currents Weather Stations Pressure Air Temp Water Temp Dewpoint Dewpoint Depression Visibility Wind Speed Wind Dir Waves Ship Positions

Keret

Last reported at 2015-May-04 10:21 UTC. Time now 2015-May-06 05:25 UTC.
Position N 53°20' E 001°33'.

Length 82 m; draft 4.4 m.

Type: Cargo ship. MMSI: 273333000.

Date/timePositionNaut miles runAvg speedWind from/ knotsBaromVisibWave heightAir tempDewpointWater temp
2015-May-04 10:21N 53°20' E 001°33'114 8.0
2015-May-03 20:08N 53°29' E 004°43'5 8.0
2015-May-03 19:33N 53°31' E 004°51'10 7.6
2015-May-03 18:18N 53°34' E 005°05'6 7.5
2015-May-03 17:33N 53°36' E 005°14'8 7.8
2015-May-03 16:33N 53°39' E 005°27'9 9.2
2015-May-03 15:33N 53°42' E 005°41'1010.3
2015-May-03 14:33N 53°45' E 005°58'51 9.9
2015-May-03 09:23N 53°59' E 007°22'7 8.4
2015-May-03 08:34N 54°01' E 007°33'8 8.3
2015-May-03 07:33N 54°02' E 007°47'9 8.7
2015-May-03 06:33N 54°01' E 008°02'1010.3
2015-May-03 05:33N 54°00' E 008°19'1211.7
2015-May-03 04:33N 53°57' E 008°38'1211.7
2015-May-03 03:34N 53°51' E 008°55'9 8.7
2015-May-03 02:34N 53°54' E 009°09'8 7.9
2015-May-03 01:33N 53°60' E 009°17'9 8.9
2015-May-03 00:32N 54°08' E 009°21'8 8.2
2015-May-02 23:33N 54°12' E 009°33'12 5.6
2015-May-02 21:22N 54°21' E 009°47'6 8.0
2015-May-02 20:33N 54°21' E 009°58'4 4.0
2015-May-02 19:34N 54°22' E 010°04'4 4.0
2015-May-02 18:33N 54°23' E 010°11'35 8.8
2015-May-02 14:32N 54°36' E 011°07'9 9.7
2015-May-02 13:34N 54°33' E 011°22'9 9.4
2015-May-02 12:33N 54°29' E 011°37'9 9.2
2015-May-02 11:33N 54°27' E 011°53'9 9.2
2015-May-02 10:33N 54°27' E 012°08'10 9.1
2015-May-02 09:28N 54°37' E 012°15'13 9.6
2015-May-02 08:08N 54°44' E 012°33'34 9.3
2015-May-02 04:26N 54°57' E 013°29'8 9.4
2015-May-02 03:32N 55°00' E 013°42'9 9.5
2015-May-02 02:33N 55°03' E 013°57'9 9.2
2015-May-02 01:33N 55°09' E 014°10'12 9.8
2015-May-02 00:18N 55°18' E 014°24'8 9.9
2015-May-01 23:27N 55°25' E 014°33'9 9.6
2015-May-01 22:33N 55°30' E 014°46'11 9.6
2015-May-01 21:26N 55°35' E 015°03'  
2015-Apr-25 03:05N 55°36' E 015°22'610.1
2015-Apr-25 02:28N 55°33' E 015°12'910.0
2015-Apr-25 01:33N 55°29' E 014°58'1010.1
2015-Apr-25 00:33N 55°24' E 014°43'1010.1
2015-Apr-24 23:33N 55°16' E 014°31'1510.1
2015-Apr-24 22:07N 55°05' E 014°14'610.2
2015-Apr-24 21:32N 55°01' E 014°06'1010.1
2015-Apr-24 20:33N 54°58' E 013°50'10 9.9
2015-Apr-24 19:33N 54°55' E 013°34'2010.1
2015-Apr-24 17:33N 54°48' E 013°01'1010.2
2015-Apr-24 16:33N 54°45' E 012°44'10 9.9
2015-Apr-24 15:33N 54°38' E 012°31'1010.4
2015-Apr-24 14:33N 54°31' E 012°18'10 9.7
2015-Apr-24 13:33N 54°24' E 012°06'1110.8
2015-Apr-24 12:33N 54°25' E 011°48'1111.0
2015-Apr-24 11:33N 54°29' E 011°30'1110.7
2015-Apr-24 10:33N 54°33' E 011°13'  
Track history (hours):
 
Tides and Currents Weather Stations Pressure Air Temp Water Temp Dewpoint Dewpoint Depression Visibility Wind Speed Wind Dir Waves Ship Positions

Keret

Last reported at 2015-May-04 10:21 UTC. Time now 2015-May-06 05:25 UTC.
Position N 53°20' E 001°33'.

Length 82 m; draft 4.4 m.

Type: Cargo ship. MMSI: 273333000.

Date/timePositionNaut miles runAvg speedWind from/ knotsBaromVisibWave heightAir tempDewpointWater temp
2015-May-04 10:21N 53°20' E 001°33'114 8.0
2015-May-03 20:08N 53°29' E 004°43'5 8.0
2015-May-03 19:33N 53°31' E 004°51'10 7.6
2015-May-03 18:18N 53°34' E 005°05'6 7.5
2015-May-03 17:33N 53°36' E 005°14'8 7.8
2015-May-03 16:33N 53°39' E 005°27'9 9.2
2015-May-03 15:33N 53°42' E 005°41'1010.3
2015-May-03 14:33N 53°45' E 005°58'51 9.9
2015-May-03 09:23N 53°59' E 007°22'7 8.4
2015-May-03 08:34N 54°01' E 007°33'8 8.3
2015-May-03 07:33N 54°02' E 007°47'9 8.7
2015-May-03 06:33N 54°01' E 008°02'1010.3
2015-May-03 05:33N 54°00' E 008°19'1211.7
2015-May-03 04:33N 53°57' E 008°38'1211.7
2015-May-03 03:34N 53°51' E 008°55'9 8.7
2015-May-03 02:34N 53°54' E 009°09'8 7.9
2015-May-03 01:33N 53°60' E 009°17'9 8.9
2015-May-03 00:32N 54°08' E 009°21'8 8.2
2015-May-02 23:33N 54°12' E 009°33'12 5.6
2015-May-02 21:22N 54°21' E 009°47'6 8.0
2015-May-02 20:33N 54°21' E 009°58'4 4.0
2015-May-02 19:34N 54°22' E 010°04'4 4.0
2015-May-02 18:33N 54°23' E 010°11'35 8.8
2015-May-02 14:32N 54°36' E 011°07'9 9.7
2015-May-02 13:34N 54°33' E 011°22'9 9.4
2015-May-02 12:33N 54°29' E 011°37'9 9.2
2015-May-02 11:33N 54°27' E 011°53'9 9.2
2015-May-02 10:33N 54°27' E 012°08'10 9.1
2015-May-02 09:28N 54°37' E 012°15'13 9.6
2015-May-02 08:08N 54°44' E 012°33'34 9.3
2015-May-02 04:26N 54°57' E 013°29'8 9.4
2015-May-02 03:32N 55°00' E 013°42'9 9.5
2015-May-02 02:33N 55°03' E 013°57'9 9.2
2015-May-02 01:33N 55°09' E 014°10'12 9.8
2015-May-02 00:18N 55°18' E 014°24'8 9.9
2015-May-01 23:27N 55°25' E 014°33'9 9.6
2015-May-01 22:33N 55°30' E 014°46'11 9.6
2015-May-01 21:26N 55°35' E 015°03'  
2015-Apr-25 03:05N 55°36' E 015°22'610.1
2015-Apr-25 02:28N 55°33' E 015°12'910.0
2015-Apr-25 01:33N 55°29' E 014°58'1010.1
2015-Apr-25 00:33N 55°24' E 014°43'1010.1
2015-Apr-24 23:33N 55°16' E 014°31'1510.1
2015-Apr-24 22:07N 55°05' E 014°14'610.2
2015-Apr-24 21:32N 55°01' E 014°06'1010.1
2015-Apr-24 20:33N 54°58' E 013°50'10 9.9
2015-Apr-24 19:33N 54°55' E 013°34'2010.1
2015-Apr-24 17:33N 54°48' E 013°01'1010.2
2015-Apr-24 16:33N 54°45' E 012°44'10 9.9
2015-Apr-24 15:33N 54°38' E 012°31'1010.4
2015-Apr-24 14:33N 54°31' E 012°18'10 9.7
2015-Apr-24 13:33N 54°24' E 012°06'1110.8
2015-Apr-24 12:33N 54°25' E 011°48'1111.0
2015-Apr-24 11:33N 54°29' E 011°30'1110.7
2015-Apr-24 10:33N 54°33' E 011°13'  

Dump ship's entire track history